sensor_id;sensor_type;location;lat;lon;timestamp;pressure;altitude;pressure_sealevel;temperature;humidity
42169;BME280;27838;43.858;25.974;2023-01-27T00:00:24;100636.19;;;6.00;76.63
42169;BME280;27838;43.858;25.974;2023-01-27T00:02:50;100640.25;;;5.88;76.09
42169;BME280;27838;43.858;25.974;2023-01-27T00:05:17;100627.31;;;5.88;76.42
42169;BME280;27838;43.858;25.974;2023-01-27T00:07:44;100635.91;;;5.86;76.64
42169;BME280;27838;43.858;25.974;2023-01-27T00:10:16;100629.03;;;5.89;76.36
42169;BME280;27838;43.858;25.974;2023-01-27T00:12:45;100627.25;;;5.84;76.59
42169;BME280;27838;43.858;25.974;2023-01-27T00:15:31;100635.84;;;5.82;76.80
42169;BME280;27838;43.858;25.974;2023-01-27T00:17:58;100638.38;;;5.79;77.41
42169;BME280;27838;43.858;25.974;2023-01-27T00:20:25;100623.78;;;5.82;76.87
42169;BME280;27838;43.858;25.974;2023-01-27T00:23:21;100644.47;;;5.82;76.98
42169;BME280;27838;43.858;25.974;2023-01-27T00:26:08;100634.84;;;5.75;76.86
42169;BME280;27838;43.858;25.974;2023-01-27T00:28:36;100631.38;;;5.75;76.97
42169;BME280;27838;43.858;25.974;2023-01-27T00:31:04;100626.97;;;5.69;77.54
42169;BME280;27838;43.858;25.974;2023-01-27T00:33:32;100628.59;;;5.64;77.87
42169;BME280;27838;43.858;25.974;2023-01-27T00:38:28;100605.38;;;5.67;77.57
42169;BME280;27838;43.858;25.974;2023-01-27T00:40:55;100601.03;;;5.64;77.76
42169;BME280;27838;43.858;25.974;2023-01-27T00:43:47;100595.88;;;5.66;77.82
42169;BME280;27838;43.858;25.974;2023-01-27T00:46:14;100581.00;;;5.53;78.18
42169;BME280;27838;43.858;25.974;2023-01-27T00:48:41;100583.66;;;5.57;78.88
42169;BME280;27838;43.858;25.974;2023-01-27T00:51:09;100563.72;;;5.52;78.59
42169;BME280;27838;43.858;25.974;2023-01-27T00:53:35;100576.81;;;5.61;78.08
42169;BME280;27838;43.858;25.974;2023-01-27T00:56:02;100571.81;;;5.70;78.33
42169;BME280;27838;43.858;25.974;2023-01-27T00:58:29;100578.72;;;5.71;78.50
42169;BME280;27838;43.858;25.974;2023-01-27T01:00:58;100567.47;;;5.67;78.41
42169;BME280;27838;43.858;25.974;2023-01-27T01:03:27;100567.41;;;5.63;79.21
42169;BME280;27838;43.858;25.974;2023-01-27T01:06:05;100562.22;;;5.63;78.65
42169;BME280;27838;43.858;25.974;2023-01-27T01:08:34;100569.41;;;5.79;78.32
42169;BME280;27838;43.858;25.974;2023-01-27T01:11:02;100578.69;;;5.70;79.30
42169;BME280;27838;43.858;25.974;2023-01-27T01:13:29;100584.03;;;5.77;79.05
42169;BME280;27838;43.858;25.974;2023-01-27T01:15:56;100594.34;;;5.76;78.21
42169;BME280;27838;43.858;25.974;2023-01-27T01:18:22;100595.25;;;5.79;78.37
42169;BME280;27838;43.858;25.974;2023-01-27T01:20:49;100597.63;;;5.67;78.77
42169;BME280;27838;43.858;25.974;2023-01-27T01:23:16;100602.81;;;5.67;79.32
42169;BME280;27838;43.858;25.974;2023-01-27T01:25:42;100577.69;;;5.60;79.24
42169;BME280;27838;43.858;25.974;2023-01-27T01:28:17;100595.91;;;5.67;79.11
42169;BME280;27838;43.858;25.974;2023-01-27T01:30:44;100596.06;;;5.75;78.48
42169;BME280;27838;43.858;25.974;2023-01-27T01:33:10;100596.00;;;5.72;78.64
42169;BME280;27838;43.858;25.974;2023-01-27T01:35:37;100595.94;;;5.69;78.52
42169;BME280;27838;43.858;25.974;2023-01-27T01:38:04;100588.25;;;5.72;78.89
42169;BME280;27838;43.858;25.974;2023-01-27T01:40:31;100582.16;;;5.68;78.30
42169;BME280;27838;43.858;25.974;2023-01-27T01:43:00;100579.53;;;5.67;78.27
42169;BME280;27838;43.858;25.974;2023-01-27T01:45:41;100582.16;;;5.68;78.80
42169;BME280;27838;43.858;25.974;2023-01-27T01:48:15;100583.06;;;5.72;78.92
42169;BME280;27838;43.858;25.974;2023-01-27T01:50:47;100570.94;;;5.68;78.52
42169;BME280;27838;43.858;25.974;2023-01-27T01:53:17;100580.53;;;5.75;78.33
42169;BME280;27838;43.858;25.974;2023-01-27T01:55:45;100583.06;;;5.72;77.73
42169;BME280;27838;43.858;25.974;2023-01-27T01:58:13;100573.53;;;5.68;78.03
42169;BME280;27838;43.858;25.974;2023-01-27T02:00:40;100561.31;;;5.61;78.68
42169;BME280;27838;43.858;25.974;2023-01-27T02:03:06;100550.19;;;5.65;78.41
42169;BME280;27838;43.858;25.974;2023-01-27T02:05:35;100545.91;;;5.67;78.61
42169;BME280;27838;43.858;25.974;2023-01-27T02:08:10;100549.44;;;5.72;78.04
42169;BME280;27838;43.858;25.974;2023-01-27T02:10:39;100541.59;;;5.67;78.06
42169;BME280;27838;43.858;25.974;2023-01-27T02:13:06;100548.44;;;5.64;78.14
42169;BME280;27838;43.858;25.974;2023-01-27T02:15:33;100533.03;;;5.70;78.27
42169;BME280;27838;43.858;25.974;2023-01-27T02:18:00;100551.22;;;5.76;78.67
42169;BME280;27838;43.858;25.974;2023-01-27T02:20:47;100546.06;;;5.76;78.23
42169;BME280;27838;43.858;25.974;2023-01-27T02:26:07;100545.16;;;5.74;77.47
42169;BME280;27838;43.858;25.974;2023-01-27T02:28:35;100544.34;;;5.75;77.76
42169;BME280;27838;43.858;25.974;2023-01-27T02:31:02;100541.78;;;5.78;78.13
42169;BME280;27838;43.858;25.974;2023-01-27T02:33:28;100542.63;;;5.77;78.35
42169;BME280;27838;43.858;25.974;2023-01-27T02:36:14;100542.69;;;5.80;78.02
42169;BME280;27838;43.858;25.974;2023-01-27T02:41:23;100529.00;;;5.86;77.21
42169;BME280;27838;43.858;25.974;2023-01-27T02:43:52;100528.09;;;5.84;77.27
42169;BME280;27838;43.858;25.974;2023-01-27T02:46:19;100519.16;;;5.65;77.63
42169;BME280;27838;43.858;25.974;2023-01-27T02:48:46;100518.28;;;5.63;78.00
42169;BME280;27838;43.858;25.974;2023-01-27T02:51:12;100520.88;;;5.66;78.16
42169;BME280;27838;43.858;25.974;2023-01-27T02:53:39;100508.00;;;5.69;77.84
42169;BME280;27838;43.858;25.974;2023-01-27T02:56:06;100520.09;;;5.70;78.04
42169;BME280;27838;43.858;25.974;2023-01-27T02:58:33;100513.19;;;5.69;78.02
42169;BME280;27838;43.858;25.974;2023-01-27T03:00:59;100504.59;;;5.70;78.24
42169;BME280;27838;43.858;25.974;2023-01-27T03:03:26;100503.63;;;5.63;78.59
42169;BME280;27838;43.858;25.974;2023-01-27T03:05:52;100486.47;;;5.68;77.52
42169;BME280;27838;43.858;25.974;2023-01-27T03:08:19;100470.94;;;5.68;78.06
42169;BME280;27838;43.858;25.974;2023-01-27T03:10:50;100465.00;;;5.74;78.13
42169;BME280;27838;43.858;25.974;2023-01-27T03:13:23;100465.00;;;5.74;77.98
42169;BME280;27838;43.858;25.974;2023-01-27T03:15:50;100470.16;;;5.74;77.88
42169;BME280;27838;43.858;25.974;2023-01-27T03:18:35;100472.66;;;5.70;77.92
42169;BME280;27838;43.858;25.974;2023-01-27T03:21:04;100468.38;;;5.70;78.10
42169;BME280;27838;43.858;25.974;2023-01-27T03:23:32;100476.22;;;5.76;78.38
42169;BME280;27838;43.858;25.974;2023-01-27T03:26:00;100466.91;;;5.86;78.07
42169;BME280;27838;43.858;25.974;2023-01-27T03:28:27;100462.78;;;5.97;78.02
42169;BME280;27838;43.858;25.974;2023-01-27T03:31:07;100448.16;;;6.01;77.45
42169;BME280;27838;43.858;25.974;2023-01-27T03:33:44;100424.88;;;5.98;76.95
42169;BME280;27838;43.858;25.974;2023-01-27T03:36:14;100428.31;;;5.98;77.13
42169;BME280;27838;43.858;25.974;2023-01-27T03:38:58;100447.09;;;5.88;77.90
42169;BME280;27838;43.858;25.974;2023-01-27T03:41:42;100453.13;;;5.89;77.55
42169;BME280;27838;43.858;25.974;2023-01-27T03:44:26;100471.25;;;5.89;78.21
42169;BME280;27838;43.858;25.974;2023-01-27T03:47:10;100460.09;;;5.91;77.54
42169;BME280;27838;43.858;25.974;2023-01-27T03:49:37;100446.41;;;5.98;77.39
42169;BME280;27838;43.858;25.974;2023-01-27T03:52:03;100453.34;;;6.01;77.41
42169;BME280;27838;43.858;25.974;2023-01-27T03:54:30;100442.97;;;5.98;76.96
42169;BME280;27838;43.858;25.974;2023-01-27T03:56:56;100460.28;;;6.02;77.12
42169;BME280;27838;43.858;25.974;2023-01-27T03:59:30;100462.84;;;6.02;77.20
42169;BME280;27838;43.858;25.974;2023-01-27T04:01:56;100455.88;;;5.96;77.75
42169;BME280;27838;43.858;25.974;2023-01-27T04:04:40;100462.03;;;6.03;77.81
42169;BME280;27838;43.858;25.974;2023-01-27T04:07:24;100468.00;;;6.00;77.54
42169;BME280;27838;43.858;25.974;2023-01-27T04:09:51;100468.84;;;5.98;77.66
42169;BME280;27838;43.858;25.974;2023-01-27T04:12:17;100463.69;;;5.99;77.43
42169;BME280;27838;43.858;25.974;2023-01-27T04:14:43;100454.31;;;6.08;77.98
42169;BME280;27838;43.858;25.974;2023-01-27T04:17:15;100456.88;;;6.08;77.64
42169;BME280;27838;43.858;25.974;2023-01-27T04:19:42;100474.19;;;6.10;77.77
42169;BME280;27838;43.858;25.974;2023-01-27T04:22:13;100485.47;;;6.15;77.59
42169;BME280;27838;43.858;25.974;2023-01-27T04:24:40;100491.59;;;6.22;77.29
42169;BME280;27838;43.858;25.974;2023-01-27T04:27:13;100494.31;;;6.31;77.40
42169;BME280;27838;43.858;25.974;2023-01-27T04:29:41;100482.19;;;6.29;76.94
42169;BME280;27838;43.858;25.974;2023-01-27T04:32:09;100497.78;;;6.32;76.65
42169;BME280;27838;43.858;25.974;2023-01-27T04:34:37;100500.38;;;6.32;76.02
42169;BME280;27838;43.858;25.974;2023-01-27T04:37:06;100496.94;;;6.33;76.98
42169;BME280;27838;43.858;25.974;2023-01-27T04:39:33;100489.19;;;6.36;76.63
42169;BME280;27838;43.858;25.974;2023-01-27T04:42:00;100490.09;;;6.36;76.55
42169;BME280;27838;43.858;25.974;2023-01-27T04:44:27;100481.31;;;6.27;76.23
42169;BME280;27838;43.858;25.974;2023-01-27T04:46:53;100492.41;;;6.18;77.22
42169;BME280;27838;43.858;25.974;2023-01-27T04:49:20;100490.75;;;6.23;76.34
42169;BME280;27838;43.858;25.974;2023-01-27T04:51:47;100491.72;;;6.30;77.19
42169;BME280;27838;43.858;25.974;2023-01-27T04:54:14;100495.31;;;6.41;76.45
42169;BME280;27838;43.858;25.974;2023-01-27T04:56:49;100495.44;;;6.50;76.37
42169;BME280;27838;43.858;25.974;2023-01-27T04:59:19;100495.44;;;6.50;75.46
42169;BME280;27838;43.858;25.974;2023-01-27T05:01:45;100503.25;;;6.55;75.27
42169;BME280;27838;43.858;25.974;2023-01-27T05:04:12;100503.31;;;6.58;74.63
42169;BME280;27838;43.858;25.974;2023-01-27T05:06:39;100507.59;;;6.56;74.81
42169;BME280;27838;43.858;25.974;2023-01-27T05:09:06;100511.84;;;6.51;75.14
42169;BME280;27838;43.858;25.974;2023-01-27T05:11:32;100508.97;;;6.31;74.38
42169;BME280;27838;43.858;25.974;2023-01-27T05:13:59;100517.66;;;6.33;75.16
42169;BME280;27838;43.858;25.974;2023-01-27T05:16:25;100521.00;;;6.27;75.28
42169;BME280;27838;43.858;25.974;2023-01-27T05:18:52;100516.69;;;6.26;74.60
42169;BME280;27838;43.858;25.974;2023-01-27T05:21:23;100507.88;;;6.15;75.19
42169;BME280;27838;43.858;25.974;2023-01-27T05:23:52;100519.25;;;6.24;74.59
42169;BME280;27838;43.858;25.974;2023-01-27T05:26:21;100513.06;;;6.15;74.90
42169;BME280;27838;43.858;25.974;2023-01-27T05:28:49;100519.03;;;6.09;74.70
42169;BME280;27838;43.858;25.974;2023-01-27T05:31:21;100510.38;;;6.07;74.88
42169;BME280;27838;43.858;25.974;2023-01-27T05:33:50;100514.69;;;6.07;74.31
42169;BME280;27838;43.858;25.974;2023-01-27T05:36:18;100527.59;;;6.05;74.40
42169;BME280;27838;43.858;25.974;2023-01-27T05:38:45;100512.03;;;6.03;74.62
42169;BME280;27838;43.858;25.974;2023-01-27T05:41:13;100500.75;;;5.98;75.33
42169;BME280;27838;43.858;25.974;2023-01-27T05:43:42;100497.34;;;5.99;75.06
42169;BME280;27838;43.858;25.974;2023-01-27T05:48:40;100483.41;;;5.94;74.82
42169;BME280;27838;43.858;25.974;2023-01-27T05:51:08;100484.28;;;5.95;74.39
42169;BME280;27838;43.858;25.974;2023-01-27T05:53:34;100481.41;;;5.76;74.89
42169;BME280;27838;43.858;25.974;2023-01-27T05:56:02;100505.47;;;5.72;75.21
42169;BME280;27838;43.858;25.974;2023-01-27T05:58:32;100489.84;;;5.66;74.91
42169;BME280;27838;43.858;25.974;2023-01-27T06:01:10;100489.81;;;5.63;75.19
42169;BME280;27838;43.858;25.974;2023-01-27T06:03:37;100492.34;;;5.60;75.64
42169;BME280;27838;43.858;25.974;2023-01-27T06:06:05;100488.97;;;5.64;75.19
42169;BME280;27838;43.858;25.974;2023-01-27T06:08:32;100496.59;;;5.56;75.63
42169;BME280;27838;43.858;25.974;2023-01-27T06:10:59;100506.09;;;5.56;75.82
42169;BME280;27838;43.858;25.974;2023-01-27T06:13:26;100513.03;;;5.60;76.24
42169;BME280;27838;43.858;25.974;2023-01-27T06:15:52;100519.94;;;5.59;75.53
42169;BME280;27838;43.858;25.974;2023-01-27T06:18:20;100520.81;;;5.61;75.83
42169;BME280;27838;43.858;25.974;2023-01-27T06:20:47;100515.75;;;5.67;75.99
42169;BME280;27838;43.858;25.974;2023-01-27T06:23:15;100511.41;;;5.65;75.91
42169;BME280;27838;43.858;25.974;2023-01-27T06:25:45;100516.56;;;5.65;75.30
42169;BME280;27838;43.858;25.974;2023-01-27T06:28:13;100520.97;;;5.71;75.32
42169;BME280;27838;43.858;25.974;2023-01-27T06:30:40;100522.75;;;5.75;75.63
42169;BME280;27838;43.858;25.974;2023-01-27T06:33:07;100515.91;;;5.77;74.84
42169;BME280;27838;43.858;25.974;2023-01-27T06:35:35;100517.56;;;5.72;74.69
42169;BME280;27838;43.858;25.974;2023-01-27T06:38:03;100517.44;;;5.65;75.03
42169;BME280;27838;43.858;25.974;2023-01-27T06:40:31;100518.22;;;5.60;75.42
42169;BME280;27838;43.858;25.974;2023-01-27T06:42:58;100517.31;;;5.58;74.92
42169;BME280;27838;43.858;25.974;2023-01-27T06:45:25;100517.16;;;5.50;75.33
42169;BME280;27838;43.858;25.974;2023-01-27T06:47:59;100503.47;;;5.54;75.09
42169;BME280;27838;43.858;25.974;2023-01-27T06:50:28;100498.28;;;5.53;75.75
42169;BME280;27838;43.858;25.974;2023-01-27T06:52:59;100501.00;;;5.62;75.41
42169;BME280;27838;43.858;25.974;2023-01-27T06:55:27;100493.22;;;5.60;75.44
42169;BME280;27838;43.858;25.974;2023-01-27T06:57:54;100474.94;;;5.49;75.24
42169;BME280;27838;43.858;25.974;2023-01-27T07:00:21;100479.28;;;5.52;74.96
42169;BME280;27838;43.858;25.974;2023-01-27T07:02:48;100488.47;;;5.35;75.35
42169;BME280;27838;43.858;25.974;2023-01-27T07:05:15;100484.94;;;5.28;75.46
42169;BME280;27838;43.858;25.974;2023-01-27T07:07:41;100478.88;;;5.27;75.29
42169;BME280;27838;43.858;25.974;2023-01-27T07:10:08;100485.63;;;5.19;75.70
42169;BME280;27838;43.858;25.974;2023-01-27T07:12:35;100478.63;;;5.12;75.49
42169;BME280;27838;43.858;25.974;2023-01-27T07:15:06;100482.09;;;5.14;75.88
42169;BME280;27838;43.858;25.974;2023-01-27T07:17:33;100489.81;;;5.13;75.57
42169;BME280;27838;43.858;25.974;2023-01-27T07:20:00;100502.66;;;5.09;75.32
42169;BME280;27838;43.858;25.974;2023-01-27T07:22:26;100497.47;;;5.08;75.51
42169;BME280;27838;43.858;25.974;2023-01-27T07:24:53;100500.09;;;5.09;75.65
42169;BME280;27838;43.858;25.974;2023-01-27T07:27:24;100503.56;;;5.11;75.50
42169;BME280;27838;43.858;25.974;2023-01-27T07:29:51;100508.69;;;5.08;75.45
42169;BME280;27838;43.858;25.974;2023-01-27T07:32:17;100505.34;;;5.14;75.38
42169;BME280;27838;43.858;25.974;2023-01-27T07:34:44;100502.84;;;5.20;75.46
42169;BME280;27838;43.858;25.974;2023-01-27T07:37:10;100499.47;;;5.23;75.50
42169;BME280;27838;43.858;25.974;2023-01-27T07:39:37;100495.03;;;5.16;75.70
42169;BME280;27838;43.858;25.974;2023-01-27T07:42:04;100499.41;;;5.20;75.19
42169;BME280;27838;43.858;25.974;2023-01-27T07:44:31;100503.75;;;5.21;75.44
42169;BME280;27838;43.858;25.974;2023-01-27T07:46:58;100511.50;;;5.21;75.26
42169;BME280;27838;43.858;25.974;2023-01-27T07:49:25;100514.66;;;5.06;74.97
42169;BME280;27838;43.858;25.974;2023-01-27T07:51:52;100516.31;;;5.02;75.45
42169;BME280;27838;43.858;25.974;2023-01-27T07:54:19;100506.81;;;5.01;75.05
42169;BME280;27838;43.858;25.974;2023-01-27T07:56:45;100506.81;;;5.01;75.39
42169;BME280;27838;43.858;25.974;2023-01-27T07:59:12;100504.25;;;5.03;74.72
42169;BME280;27838;43.858;25.974;2023-01-27T08:01:38;100505.09;;;5.00;74.68
42169;BME280;27838;43.858;25.974;2023-01-27T08:04:06;100508.50;;;4.99;75.05
42169;BME280;27838;43.858;25.974;2023-01-27T08:06:32;100508.56;;;5.02;75.17
42169;BME280;27838;43.858;25.974;2023-01-27T08:08:59;100505.03;;;4.97;75.07
42169;BME280;27838;43.858;25.974;2023-01-27T08:21:31;100495.44;;;4.91;74.74
42169;BME280;27838;43.858;25.974;2023-01-27T08:23:58;100488.66;;;4.97;74.73
42169;BME280;27838;43.858;25.974;2023-01-27T08:26:26;100493.00;;;4.99;74.16
42169;BME280;27838;43.858;25.974;2023-01-27T08:28:52;100487.75;;;4.96;74.39
42169;BME280;27838;43.858;25.974;2023-01-27T08:31:19;100475.72;;;4.95;74.37
42169;BME280;27838;43.858;25.974;2023-01-27T08:33:50;100481.66;;;4.91;74.71
42169;BME280;27838;43.858;25.974;2023-01-27T08:36:18;100478.31;;;4.97;74.14
42169;BME280;27838;43.858;25.974;2023-01-27T08:38:46;100477.34;;;4.90;74.28
42169;BME280;27838;43.858;25.974;2023-01-27T08:41:16;100469.66;;;4.93;74.45
42169;BME280;27838;43.858;25.974;2023-01-27T08:43:43;100466.22;;;4.94;74.43
42169;BME280;27838;43.858;25.974;2023-01-27T08:46:10;100458.44;;;4.91;74.33
42169;BME280;27838;43.858;25.974;2023-01-27T08:48:36;100463.50;;;4.86;74.23
42169;BME280;27838;43.858;25.974;2023-01-27T08:51:04;100461.53;;;4.75;74.70
42169;BME280;27838;43.858;25.974;2023-01-27T08:53:32;100455.47;;;4.72;74.86
42169;BME280;27838;43.858;25.974;2023-01-27T08:56:04;100457.94;;;4.66;74.45
42169;BME280;27838;43.858;25.974;2023-01-27T08:58:31;100460.56;;;4.69;75.23
42169;BME280;27838;43.858;25.974;2023-01-27T09:00:59;100466.34;;;4.56;74.54
42169;BME280;27838;43.858;25.974;2023-01-27T09:03:31;100462.19;;;4.64;75.04
42169;BME280;27838;43.858;25.974;2023-01-27T09:05:59;100451.72;;;4.57;74.08
42169;BME280;27838;43.858;25.974;2023-01-27T09:08:26;100446.56;;;4.57;74.80
42169;BME280;27838;43.858;25.974;2023-01-27T09:10:53;100440.47;;;4.53;74.30
42169;BME280;27838;43.858;25.974;2023-01-27T09:13:19;100443.97;;;4.57;74.58
42169;BME280;27838;43.858;25.974;2023-01-27T09:15:47;100430.19;;;4.54;74.85
42169;BME280;27838;43.858;25.974;2023-01-27T09:18:13;100421.78;;;4.65;74.93
42169;BME280;27838;43.858;25.974;2023-01-27T09:20:40;100417.59;;;4.73;74.23
42169;BME280;27838;43.858;25.974;2023-01-27T09:23:06;100420.09;;;4.67;74.39
42169;BME280;27838;43.858;25.974;2023-01-27T09:25:33;100416.00;;;4.78;74.65
42169;BME280;27838;43.858;25.974;2023-01-27T09:28:00;100428.09;;;4.81;74.02
42169;BME280;27838;43.858;25.974;2023-01-27T09:30:27;100415.66;;;4.60;73.77
42169;BME280;27838;43.858;25.974;2023-01-27T09:32:58;100411.09;;;4.46;73.78
42169;BME280;27838;43.858;25.974;2023-01-27T09:35:31;100419.63;;;4.44;74.52
42169;BME280;27838;43.858;25.974;2023-01-27T09:38:03;100422.19;;;4.42;74.51
42169;BME280;27838;43.858;25.974;2023-01-27T09:51:22;100422.47;;;4.58;73.81
42169;BME280;27838;43.858;25.974;2023-01-27T09:56:52;100414.75;;;4.59;73.37
42169;BME280;27838;43.858;25.974;2023-01-27T09:59:38;100407.69;;;4.49;73.89
42169;BME280;27838;43.858;25.974;2023-01-27T10:05:10;100406.00;;;4.49;73.72
42169;BME280;27838;43.858;25.974;2023-01-27T10:13:15;100396.78;;;4.64;73.15
42169;BME280;27838;43.858;25.974;2023-01-27T10:16:05;100391.72;;;4.70;73.01
42169;BME280;27838;43.858;25.974;2023-01-27T10:27:26;100362.19;;;4.54;72.80
42169;BME280;27838;43.858;25.974;2023-01-27T10:30:13;100374.81;;;4.40;73.19
42169;BME280;27838;43.858;25.974;2023-01-27T10:32:46;100376.47;;;4.37;73.20
42169;BME280;27838;43.858;25.974;2023-01-27T10:43:51;100352.03;;;4.63;73.62
42169;BME280;27838;43.858;25.974;2023-01-27T10:51:57;100326.97;;;4.56;73.18
42169;BME280;27838;43.858;25.974;2023-01-27T10:54:50;100322.59;;;4.53;73.15
42169;BME280;27838;43.858;25.974;2023-01-27T11:00:13;100320.91;;;4.56;72.44
42169;BME280;27838;43.858;25.974;2023-01-27T11:03:04;100317.50;;;4.57;73.07
42169;BME280;27838;43.858;25.974;2023-01-27T11:05:36;100314.81;;;4.52;73.28
42169;BME280;27838;43.858;25.974;2023-01-27T11:08:12;100309.50;;;4.43;72.87
42169;BME280;27838;43.858;25.974;2023-01-27T11:10:45;100322.31;;;4.38;73.38
42169;BME280;27838;43.858;25.974;2023-01-27T11:13:27;100318.72;;;4.28;73.12
42169;BME280;27838;43.858;25.974;2023-01-27T11:15:56;100318.78;;;4.33;73.39
42169;BME280;27838;43.858;25.974;2023-01-27T11:18:27;100313.72;;;4.38;73.25
42169;BME280;27838;43.858;25.974;2023-01-27T11:21:01;100300.69;;;4.31;73.54
42169;BME280;27838;43.858;25.974;2023-01-27T11:23:30;100299.72;;;4.26;73.55
42169;BME280;27838;43.858;25.974;2023-01-27T11:26:16;100295.50;;;4.28;73.15
42169;BME280;27838;43.858;25.974;2023-01-27T11:34:15;100276.34;;;4.17;73.80
42169;BME280;27838;43.858;25.974;2023-01-27T11:36:43;100290.13;;;4.19;73.64
42169;BME280;27838;43.858;25.974;2023-01-27T11:39:10;100284.03;;;4.15;73.86
42169;BME280;27838;43.858;25.974;2023-01-27T11:41:42;100285.47;;;4.00;73.89
42169;BME280;27838;43.858;25.974;2023-01-27T11:44:36;100290.72;;;4.04;74.56
42169;BME280;27838;43.858;25.974;2023-01-27T11:47:05;100274.38;;;4.04;74.41
42169;BME280;27838;43.858;25.974;2023-01-27T11:49:40;100277.94;;;4.10;74.63
42169;BME280;27838;43.858;25.974;2023-01-27T11:52:14;100272.00;;;4.14;74.23
42169;BME280;27838;43.858;25.974;2023-01-27T11:57:25;100279.75;;;4.14;73.82
42169;BME280;27838;43.858;25.974;2023-01-27T12:02:38;100264.31;;;4.16;73.51
42169;BME280;27838;43.858;25.974;2023-01-27T12:05:10;100279.78;;;4.16;74.14
42169;BME280;27838;43.858;25.974;2023-01-27T12:10:27;100271.09;;;4.11;73.91
42169;BME280;27838;43.858;25.974;2023-01-27T12:12:56;100278.78;;;4.09;73.95
42169;BME280;27838;43.858;25.974;2023-01-27T12:15:25;100283.16;;;4.13;74.01
42169;BME280;27838;43.858;25.974;2023-01-27T12:17:56;100289.31;;;4.20;74.05
42169;BME280;27838;43.858;25.974;2023-01-27T12:20:39;100298.78;;;4.23;73.49
42169;BME280;27838;43.858;25.974;2023-01-27T12:23:14;100299.03;;;4.33;73.70
42169;BME280;27838;43.858;25.974;2023-01-27T12:25:47;100293.00;;;4.34;73.57
42169;BME280;27838;43.858;25.974;2023-01-27T12:31:02;100303.41;;;4.39;73.91
42169;BME280;27838;43.858;25.974;2023-01-27T12:33:31;100307.75;;;4.42;73.05
42169;BME280;27838;43.858;25.974;2023-01-27T12:36:00;100306.97;;;4.44;72.77
42169;BME280;27838;43.858;25.974;2023-01-27T12:38:34;100307.03;;;4.49;72.87
42169;BME280;27838;43.858;25.974;2023-01-27T12:41:06;100313.03;;;4.48;72.53
42169;BME280;27838;43.858;25.974;2023-01-27T12:43:49;100316.47;;;4.48;72.16
42169;BME280;27838;43.858;25.974;2023-01-27T12:46:20;100310.56;;;4.54;72.35
42169;BME280;27838;43.858;25.974;2023-01-27T12:48:50;100317.47;;;4.55;71.60
42169;BME280;27838;43.858;25.974;2023-01-27T12:51:21;100327.06;;;4.62;71.66
42169;BME280;27838;43.858;25.974;2023-01-27T12:53:50;100322.75;;;4.63;71.61
42169;BME280;27838;43.858;25.974;2023-01-27T12:56:19;100324.53;;;4.65;71.82
42169;BME280;27838;43.858;25.974;2023-01-27T13:01:26;100330.44;;;4.58;71.09
42169;BME280;27838;43.858;25.974;2023-01-27T13:06:31;100337.47;;;4.67;71.10
42169;BME280;27838;43.858;25.974;2023-01-27T13:08:59;100330.47;;;4.61;71.24
42169;BME280;27838;43.858;25.974;2023-01-27T13:11:34;100342.66;;;4.68;71.51
42169;BME280;27838;43.858;25.974;2023-01-27T13:14:06;100329.56;;;4.59;70.88
42169;BME280;27838;43.858;25.974;2023-01-27T13:16:33;100334.84;;;4.64;71.32
42169;BME280;27838;43.858;25.974;2023-01-27T13:19:00;100333.13;;;4.64;71.45
42169;BME280;27838;43.858;25.974;2023-01-27T13:21:34;100343.47;;;4.66;71.45
42169;BME280;27838;43.858;25.974;2023-01-27T13:24:05;100337.50;;;4.68;71.63
42169;BME280;27838;43.858;25.974;2023-01-27T13:26:37;100341.75;;;4.65;71.38
42169;BME280;27838;43.858;25.974;2023-01-27T13:29:13;100338.34;;;4.67;71.32
42169;BME280;27838;43.858;25.974;2023-01-27T13:32:00;100351.38;;;4.73;71.04
42169;BME280;27838;43.858;25.974;2023-01-27T13:34:52;100338.56;;;4.80;71.25
42169;BME280;27838;43.858;25.974;2023-01-27T13:40:19;100335.09;;;4.79;71.13
42169;BME280;27838;43.858;25.974;2023-01-27T13:43:02;100345.53;;;4.85;71.10
42169;BME280;27838;43.858;25.974;2023-01-27T13:45:47;100339.44;;;4.82;71.26
42169;BME280;27838;43.858;25.974;2023-01-27T13:48:43;100342.88;;;4.81;70.87
42169;BME280;27838;43.858;25.974;2023-01-27T13:51:14;100335.94;;;4.78;71.39
42169;BME280;27838;43.858;25.974;2023-01-27T13:53:43;100355.81;;;4.84;71.24
42169;BME280;27838;43.858;25.974;2023-01-27T14:07:41;100353.63;;;5.05;70.73
42169;BME280;27838;43.858;25.974;2023-01-27T14:18:17;100355.31;;;5.03;69.83
42169;BME280;27838;43.858;25.974;2023-01-27T14:29:29;100369.91;;;5.01;69.34
42169;BME280;27838;43.858;25.974;2023-01-27T14:41:16;100367.22;;;4.95;69.28
42169;BME280;27838;43.858;25.974;2023-01-27T14:51:40;100365.53;;;4.97;68.74
42169;BME280;27838;43.858;25.974;2023-01-27T15:05:14;100375.28;;;5.12;69.52
42169;BME280;27838;43.858;25.974;2023-01-27T15:18:42;100378.81;;;5.17;68.07
42169;BME280;27838;43.858;25.974;2023-01-27T15:21:39;100388.94;;;5.06;68.17
42169;BME280;27838;43.858;25.974;2023-01-27T15:26:45;100383.63;;;4.97;67.76
42169;BME280;27838;43.858;25.974;2023-01-27T15:29:13;100393.22;;;5.04;68.32
42169;BME280;27838;43.858;25.974;2023-01-27T15:31:40;100391.47;;;5.05;68.53
42169;BME280;27838;43.858;25.974;2023-01-27T15:34:20;100380.22;;;5.01;69.07
42169;BME280;27838;43.858;25.974;2023-01-27T15:37:11;100395.03;;;5.08;68.63
42169;BME280;27838;43.858;25.974;2023-01-27T15:45:32;100394.78;;;4.96;68.83
42169;BME280;27838;43.858;25.974;2023-01-27T15:50:37;100401.72;;;4.99;67.90
42169;BME280;27838;43.858;25.974;2023-01-27T15:53:13;100390.44;;;4.94;67.73
42169;BME280;27838;43.858;25.974;2023-01-27T15:55:49;100401.66;;;4.96;67.66
42169;BME280;27838;43.858;25.974;2023-01-27T15:58:39;100411.97;;;4.94;68.19